sensor_id;sensor_type;location;lat;lon;timestamp;temperature;humidity
54431;DHT22;40342;52.998;5.862;2023-04-24T00:00:16;11.40;99.90
54431;DHT22;40342;52.998;5.862;2023-04-24T00:02:43;11.40;99.90
54431;DHT22;40342;52.998;5.862;2023-04-24T00:05:14;11.40;99.90
54431;DHT22;40342;52.998;5.862;2023-04-24T00:07:41;11.40;99.90
54431;DHT22;40342;52.998;5.862;2023-04-24T00:10:07;11.40;99.90
54431;DHT22;40342;52.998;5.862;2023-04-24T00:12:33;11.40;99.90
54431;DHT22;40342;52.998;5.862;2023-04-24T00:14:59;11.40;99.90
54431;DHT22;40342;52.998;5.862;2023-04-24T00:17:24;11.40;99.90
54431;DHT22;40342;52.998;5.862;2023-04-24T00:19:50;11.40;99.90
54431;DHT22;40342;52.998;5.862;2023-04-24T00:22:17;11.30;99.90
54431;DHT22;40342;52.998;5.862;2023-04-24T00:24:43;11.40;99.90
54431;DHT22;40342;52.998;5.862;2023-04-24T00:27:08;11.30;99.90
54431;DHT22;40342;52.998;5.862;2023-04-24T00:29:34;11.30;99.90
54431;DHT22;40342;52.998;5.862;2023-04-24T00:32:00;11.30;99.90
54431;DHT22;40342;52.998;5.862;2023-04-24T00:34:25;11.30;99.90
54431;DHT22;40342;52.998;5.862;2023-04-24T00:36:51;11.30;99.90
54431;DHT22;40342;52.998;5.862;2023-04-24T00:39:21;11.20;99.90
54431;DHT22;40342;52.998;5.862;2023-04-24T00:41:47;11.20;99.90
54431;DHT22;40342;52.998;5.862;2023-04-24T00:44:14;11.20;99.90
54431;DHT22;40342;52.998;5.862;2023-04-24T00:46:40;11.10;99.90
54431;DHT22;40342;52.998;5.862;2023-04-24T00:49:05;11.10;99.90
54431;DHT22;40342;52.998;5.862;2023-04-24T00:51:31;11.10;99.90
54431;DHT22;40342;52.998;5.862;2023-04-24T00:53:58;11.00;99.90
54431;DHT22;40342;52.998;5.862;2023-04-24T00:56:24;11.00;99.90
54431;DHT22;40342;52.998;5.862;2023-04-24T00:58:50;11.00;99.90
54431;DHT22;40342;52.998;5.862;2023-04-24T01:01:17;11.00;99.90
54431;DHT22;40342;52.998;5.862;2023-04-24T01:03:46;10.90;99.90
54431;DHT22;40342;52.998;5.862;2023-04-24T01:06:13;10.90;99.90
54431;DHT22;40342;52.998;5.862;2023-04-24T01:08:40;10.90;99.90
54431;DHT22;40342;52.998;5.862;2023-04-24T01:11:06;10.90;99.90
54431;DHT22;40342;52.998;5.862;2023-04-24T01:13:33;10.80;99.90
54431;DHT22;40342;52.998;5.862;2023-04-24T01:15:59;10.80;99.90
54431;DHT22;40342;52.998;5.862;2023-04-24T01:18:25;10.70;99.90
54431;DHT22;40342;52.998;5.862;2023-04-24T01:20:53;10.70;99.90
54431;DHT22;40342;52.998;5.862;2023-04-24T01:23:21;10.60;99.90
54431;DHT22;40342;52.998;5.862;2023-04-24T01:25:48;10.60;99.90
54431;DHT22;40342;52.998;5.862;2023-04-24T01:28:14;10.60;99.90
54431;DHT22;40342;52.998;5.862;2023-04-24T01:30:40;10.60;99.90
54431;DHT22;40342;52.998;5.862;2023-04-24T01:33:05;10.50;99.90
54431;DHT22;40342;52.998;5.862;2023-04-24T01:35:31;10.50;99.90
54431;DHT22;40342;52.998;5.862;2023-04-24T01:37:58;10.50;99.90
54431;DHT22;40342;52.998;5.862;2023-04-24T01:40:23;10.60;99.90
54431;DHT22;40342;52.998;5.862;2023-04-24T01:42:49;10.50;99.90
54431;DHT22;40342;52.998;5.862;2023-04-24T01:45:14;10.50;99.90
54431;DHT22;40342;52.998;5.862;2023-04-24T01:47:40;10.40;99.90
54431;DHT22;40342;52.998;5.862;2023-04-24T01:50:07;10.40;99.90
54431;DHT22;40342;52.998;5.862;2023-04-24T01:52:32;10.40;99.90
54431;DHT22;40342;52.998;5.862;2023-04-24T01:55:02;10.40;99.90
54431;DHT22;40342;52.998;5.862;2023-04-24T01:57:30;10.40;99.90
54431;DHT22;40342;52.998;5.862;2023-04-24T01:59:56;10.40;99.90
54431;DHT22;40342;52.998;5.862;2023-04-24T02:02:22;10.50;99.90
54431;DHT22;40342;52.998;5.862;2023-04-24T02:04:52;10.50;99.90
54431;DHT22;40342;52.998;5.862;2023-04-24T02:07:17;10.50;99.90
54431;DHT22;40342;52.998;5.862;2023-04-24T02:09:43;10.50;99.90
54431;DHT22;40342;52.998;5.862;2023-04-24T02:12:08;10.50;99.90
54431;DHT22;40342;52.998;5.862;2023-04-24T02:14:34;10.50;99.90
54431;DHT22;40342;52.998;5.862;2023-04-24T02:17:00;10.50;99.90
54431;DHT22;40342;52.998;5.862;2023-04-24T02:19:26;10.50;99.90
54431;DHT22;40342;52.998;5.862;2023-04-24T02:21:52;10.50;99.90
54431;DHT22;40342;52.998;5.862;2023-04-24T02:24:17;10.50;99.90
54431;DHT22;40342;52.998;5.862;2023-04-24T02:26:43;10.50;99.90
54431;DHT22;40342;52.998;5.862;2023-04-24T02:29:08;10.60;99.90
54431;DHT22;40342;52.998;5.862;2023-04-24T02:31:34;10.50;99.90
54431;DHT22;40342;52.998;5.862;2023-04-24T02:34:00;10.50;99.90
54431;DHT22;40342;52.998;5.862;2023-04-24T02:36:25;10.60;99.90
54431;DHT22;40342;52.998;5.862;2023-04-24T02:38:51;10.50;99.90
54431;DHT22;40342;52.998;5.862;2023-04-24T02:41:16;10.50;99.90
54431;DHT22;40342;52.998;5.862;2023-04-24T02:43:42;10.50;99.90
54431;DHT22;40342;52.998;5.862;2023-04-24T02:46:07;10.50;99.90
54431;DHT22;40342;52.998;5.862;2023-04-24T02:48:33;10.50;99.90
54431;DHT22;40342;52.998;5.862;2023-04-24T02:50:58;10.50;99.90
54431;DHT22;40342;52.998;5.862;2023-04-24T02:53:24;10.50;99.90
54431;DHT22;40342;52.998;5.862;2023-04-24T02:55:50;10.50;99.90
54431;DHT22;40342;52.998;5.862;2023-04-24T02:58:15;10.50;99.90
54431;DHT22;40342;52.998;5.862;2023-04-24T03:00:41;10.50;99.90
54431;DHT22;40342;52.998;5.862;2023-04-24T03:03:06;10.50;99.90
54431;DHT22;40342;52.998;5.862;2023-04-24T03:05:32;10.40;99.90
54431;DHT22;40342;52.998;5.862;2023-04-24T03:07:58;10.40;99.90
54431;DHT22;40342;52.998;5.862;2023-04-24T03:10:23;10.40;99.90
54431;DHT22;40342;52.998;5.862;2023-04-24T03:12:49;10.50;99.90
54431;DHT22;40342;52.998;5.862;2023-04-24T03:15:15;10.40;99.90
54431;DHT22;40342;52.998;5.862;2023-04-24T03:17:41;10.50;99.90
54431;DHT22;40342;52.998;5.862;2023-04-24T03:20:07;10.50;99.90
54431;DHT22;40342;52.998;5.862;2023-04-24T03:22:34;10.50;99.90
54431;DHT22;40342;52.998;5.862;2023-04-24T03:25:00;10.50;99.90
54431;DHT22;40342;52.998;5.862;2023-04-24T03:27:26;10.50;99.90
54431;DHT22;40342;52.998;5.862;2023-04-24T03:29:51;10.50;99.90
54431;DHT22;40342;52.998;5.862;2023-04-24T03:32:23;10.40;99.90
54431;DHT22;40342;52.998;5.862;2023-04-24T03:34:49;10.40;99.90
54431;DHT22;40342;52.998;5.862;2023-04-24T03:37:15;10.40;99.90
54431;DHT22;40342;52.998;5.862;2023-04-24T03:39:41;10.40;99.90
54431;DHT22;40342;52.998;5.862;2023-04-24T03:42:07;10.50;99.90
54431;DHT22;40342;52.998;5.862;2023-04-24T03:44:34;10.40;99.90
54431;DHT22;40342;52.998;5.862;2023-04-24T03:47:00;10.50;99.90
54431;DHT22;40342;52.998;5.862;2023-04-24T03:49:25;10.40;99.90
54431;DHT22;40342;52.998;5.862;2023-04-24T03:51:51;10.40;99.90
54431;DHT22;40342;52.998;5.862;2023-04-24T03:54:18;10.40;99.90
54431;DHT22;40342;52.998;5.862;2023-04-24T03:56:44;10.40;99.90
54431;DHT22;40342;52.998;5.862;2023-04-24T03:59:09;10.40;99.90
54431;DHT22;40342;52.998;5.862;2023-04-24T04:01:35;10.40;99.90
54431;DHT22;40342;52.998;5.862;2023-04-24T04:04:06;10.40;99.90
54431;DHT22;40342;52.998;5.862;2023-04-24T04:06:31;10.30;99.90
54431;DHT22;40342;52.998;5.862;2023-04-24T04:08:58;10.30;99.90
54431;DHT22;40342;52.998;5.862;2023-04-24T04:11:24;10.30;99.90
54431;DHT22;40342;52.998;5.862;2023-04-24T04:13:50;10.20;99.90
54431;DHT22;40342;52.998;5.862;2023-04-24T04:16:16;10.20;99.90
54431;DHT22;40342;52.998;5.862;2023-04-24T04:18:43;10.20;99.90
54431;DHT22;40342;52.998;5.862;2023-04-24T04:21:09;10.20;99.90
54431;DHT22;40342;52.998;5.862;2023-04-24T04:23:34;10.20;99.90
54431;DHT22;40342;52.998;5.862;2023-04-24T04:26:01;10.20;99.90
54431;DHT22;40342;52.998;5.862;2023-04-24T04:28:26;10.20;99.90
54431;DHT22;40342;52.998;5.862;2023-04-24T04:30:52;10.20;99.90
54431;DHT22;40342;52.998;5.862;2023-04-24T04:33:20;10.20;99.90
54431;DHT22;40342;52.998;5.862;2023-04-24T04:35:46;10.20;99.90
54431;DHT22;40342;52.998;5.862;2023-04-24T04:38:14;10.20;99.90
54431;DHT22;40342;52.998;5.862;2023-04-24T04:40:40;10.20;99.90
54431;DHT22;40342;52.998;5.862;2023-04-24T04:43:06;10.20;99.90
54431;DHT22;40342;52.998;5.862;2023-04-24T04:45:32;10.20;99.90
54431;DHT22;40342;52.998;5.862;2023-04-24T04:47:58;10.20;99.90
54431;DHT22;40342;52.998;5.862;2023-04-24T04:50:26;10.10;99.90
54431;DHT22;40342;52.998;5.862;2023-04-24T04:52:52;10.10;99.90
54431;DHT22;40342;52.998;5.862;2023-04-24T04:55:18;10.10;99.90
54431;DHT22;40342;52.998;5.862;2023-04-24T04:57:45;10.00;99.90
54431;DHT22;40342;52.998;5.862;2023-04-24T05:00:12;10.00;99.90
54431;DHT22;40342;52.998;5.862;2023-04-24T05:02:38;10.00;99.90
54431;DHT22;40342;52.998;5.862;2023-04-24T05:05:05;10.00;99.90
54431;DHT22;40342;52.998;5.862;2023-04-24T05:07:31;10.00;99.90
54431;DHT22;40342;52.998;5.862;2023-04-24T05:09:56;10.00;99.90
54431;DHT22;40342;52.998;5.862;2023-04-24T05:12:22;10.00;99.90
54431;DHT22;40342;52.998;5.862;2023-04-24T05:14:47;10.00;99.90
54431;DHT22;40342;52.998;5.862;2023-04-24T05:17:13;10.00;99.90
54431;DHT22;40342;52.998;5.862;2023-04-24T05:19:38;10.00;99.90
54431;DHT22;40342;52.998;5.862;2023-04-24T05:22:04;9.90;99.90
54431;DHT22;40342;52.998;5.862;2023-04-24T05:24:35;10.00;99.90
54431;DHT22;40342;52.998;5.862;2023-04-24T05:27:02;9.90;99.90
54431;DHT22;40342;52.998;5.862;2023-04-24T05:29:28;9.90;99.90
54431;DHT22;40342;52.998;5.862;2023-04-24T05:31:56;9.90;99.90
54431;DHT22;40342;52.998;5.862;2023-04-24T05:34:22;9.90;99.90
54431;DHT22;40342;52.998;5.862;2023-04-24T05:36:48;9.90;99.90
54431;DHT22;40342;52.998;5.862;2023-04-24T05:39:14;9.90;99.90
54431;DHT22;40342;52.998;5.862;2023-04-24T05:41:40;9.90;99.90
54431;DHT22;40342;52.998;5.862;2023-04-24T05:44:06;10.00;99.90
54431;DHT22;40342;52.998;5.862;2023-04-24T05:46:31;9.80;99.90
54431;DHT22;40342;52.998;5.862;2023-04-24T05:48:57;9.90;99.90
54431;DHT22;40342;52.998;5.862;2023-04-24T05:51:23;9.90;99.90
54431;DHT22;40342;52.998;5.862;2023-04-24T05:53:49;9.90;99.90
54431;DHT22;40342;52.998;5.862;2023-04-24T05:56:14;9.90;99.90
54431;DHT22;40342;52.998;5.862;2023-04-24T05:58:40;9.90;99.90
54431;DHT22;40342;52.998;5.862;2023-04-24T06:01:06;9.90;99.90
54431;DHT22;40342;52.998;5.862;2023-04-24T06:03:32;9.90;99.90
54431;DHT22;40342;52.998;5.862;2023-04-24T06:05:58;9.90;99.90
54431;DHT22;40342;52.998;5.862;2023-04-24T06:08:23;9.90;99.90
54431;DHT22;40342;52.998;5.862;2023-04-24T06:10:49;9.90;99.90
54431;DHT22;40342;52.998;5.862;2023-04-24T06:13:15;9.90;99.90
54431;DHT22;40342;52.998;5.862;2023-04-24T06:15:41;9.90;99.90
54431;DHT22;40342;52.998;5.862;2023-04-24T06:18:07;9.90;99.90
54431;DHT22;40342;52.998;5.862;2023-04-24T06:20:32;9.90;99.90
54431;DHT22;40342;52.998;5.862;2023-04-24T06:22:58;9.90;99.90
54431;DHT22;40342;52.998;5.862;2023-04-24T06:25:25;9.90;99.90
54431;DHT22;40342;52.998;5.862;2023-04-24T06:27:52;9.90;99.90
54431;DHT22;40342;52.998;5.862;2023-04-24T06:30:17;9.90;99.90
54431;DHT22;40342;52.998;5.862;2023-04-24T06:32:43;9.90;99.90
54431;DHT22;40342;52.998;5.862;2023-04-24T06:35:08;9.90;99.90
54431;DHT22;40342;52.998;5.862;2023-04-24T06:37:35;9.90;99.90
54431;DHT22;40342;52.998;5.862;2023-04-24T06:40:01;9.90;99.90
54431;DHT22;40342;52.998;5.862;2023-04-24T06:42:27;9.90;99.90
54431;DHT22;40342;52.998;5.862;2023-04-24T06:44:53;9.90;99.90
54431;DHT22;40342;52.998;5.862;2023-04-24T06:47:18;9.90;99.90
54431;DHT22;40342;52.998;5.862;2023-04-24T06:49:44;9.90;99.90
54431;DHT22;40342;52.998;5.862;2023-04-24T06:52:10;9.80;99.90
54431;DHT22;40342;52.998;5.862;2023-04-24T06:54:35;9.80;99.90
54431;DHT22;40342;52.998;5.862;2023-04-24T06:57:01;9.70;99.90
54431;DHT22;40342;52.998;5.862;2023-04-24T06:59:28;9.70;99.90
54431;DHT22;40342;52.998;5.862;2023-04-24T07:01:54;9.70;99.90
54431;DHT22;40342;52.998;5.862;2023-04-24T07:04:20;9.60;99.90
54431;DHT22;40342;52.998;5.862;2023-04-24T07:06:46;9.60;99.90
54431;DHT22;40342;52.998;5.862;2023-04-24T07:09:12;9.50;99.90
54431;DHT22;40342;52.998;5.862;2023-04-24T07:11:39;9.50;99.90
54431;DHT22;40342;52.998;5.862;2023-04-24T07:14:06;9.50;99.90
54431;DHT22;40342;52.998;5.862;2023-04-24T07:16:32;9.40;99.90
54431;DHT22;40342;52.998;5.862;2023-04-24T07:18:57;9.40;99.90
54431;DHT22;40342;52.998;5.862;2023-04-24T07:21:23;9.40;99.90
54431;DHT22;40342;52.998;5.862;2023-04-24T07:23:48;9.40;99.90
54431;DHT22;40342;52.998;5.862;2023-04-24T07:26:14;9.40;99.90
54431;DHT22;40342;52.998;5.862;2023-04-24T07:28:40;9.40;99.90
54431;DHT22;40342;52.998;5.862;2023-04-24T07:31:06;9.40;99.90
54431;DHT22;40342;52.998;5.862;2023-04-24T07:33:32;9.40;99.90
54431;DHT22;40342;52.998;5.862;2023-04-24T07:35:58;9.30;99.90
54431;DHT22;40342;52.998;5.862;2023-04-24T07:38:24;9.30;99.90
54431;DHT22;40342;52.998;5.862;2023-04-24T07:40:51;9.40;99.90
54431;DHT22;40342;52.998;5.862;2023-04-24T07:43:17;9.30;99.90
54431;DHT22;40342;52.998;5.862;2023-04-24T07:45:43;9.30;99.90
54431;DHT22;40342;52.998;5.862;2023-04-24T07:48:09;9.30;99.90
54431;DHT22;40342;52.998;5.862;2023-04-24T07:50:35;9.20;99.90
54431;DHT22;40342;52.998;5.862;2023-04-24T07:53:02;9.20;99.90
54431;DHT22;40342;52.998;5.862;2023-04-24T07:55:27;9.20;99.90
54431;DHT22;40342;52.998;5.862;2023-04-24T07:57:56;9.20;99.90
54431;DHT22;40342;52.998;5.862;2023-04-24T08:00:34;9.20;99.90
54431;DHT22;40342;52.998;5.862;2023-04-24T08:03:00;9.20;99.90
54431;DHT22;40342;52.998;5.862;2023-04-24T08:05:26;9.20;99.90
54431;DHT22;40342;52.998;5.862;2023-04-24T08:07:52;9.20;99.90
54431;DHT22;40342;52.998;5.862;2023-04-24T08:10:18;9.20;99.90
54431;DHT22;40342;52.998;5.862;2023-04-24T08:12:44;9.20;99.90
54431;DHT22;40342;52.998;5.862;2023-04-24T08:15:10;9.30;99.90
54431;DHT22;40342;52.998;5.862;2023-04-24T08:17:36;9.30;99.90
54431;DHT22;40342;52.998;5.862;2023-04-24T08:20:03;9.40;99.90
54431;DHT22;40342;52.998;5.862;2023-04-24T08:22:30;9.40;99.90
54431;DHT22;40342;52.998;5.862;2023-04-24T08:24:56;9.40;99.90
54431;DHT22;40342;52.998;5.862;2023-04-24T08:27:23;9.40;99.90
54431;DHT22;40342;52.998;5.862;2023-04-24T08:29:49;9.30;99.90
54431;DHT22;40342;52.998;5.862;2023-04-24T08:32:15;9.50;99.90
54431;DHT22;40342;52.998;5.862;2023-04-24T08:34:40;9.30;99.90
54431;DHT22;40342;52.998;5.862;2023-04-24T08:37:06;9.30;99.90
54431;DHT22;40342;52.998;5.862;2023-04-24T08:39:31;9.30;99.90
54431;DHT22;40342;52.998;5.862;2023-04-24T08:42:04;9.30;99.90
54431;DHT22;40342;52.998;5.862;2023-04-24T08:44:34;9.30;99.90
54431;DHT22;40342;52.998;5.862;2023-04-24T08:47:01;9.30;99.90
54431;DHT22;40342;52.998;5.862;2023-04-24T08:49:28;9.40;99.90
54431;DHT22;40342;52.998;5.862;2023-04-24T08:52:03;9.40;99.90
54431;DHT22;40342;52.998;5.862;2023-04-24T08:54:39;9.40;99.90
54431;DHT22;40342;52.998;5.862;2023-04-24T08:57:07;9.50;99.90
54431;DHT22;40342;52.998;5.862;2023-04-24T08:59:33;9.50;99.90
54431;DHT22;40342;52.998;5.862;2023-04-24T09:02:03;9.60;99.90
54431;DHT22;40342;52.998;5.862;2023-04-24T09:04:29;9.60;99.90
54431;DHT22;40342;52.998;5.862;2023-04-24T09:06:57;9.60;99.90
54431;DHT22;40342;52.998;5.862;2023-04-24T09:09:24;9.60;99.90
54431;DHT22;40342;52.998;5.862;2023-04-24T09:11:50;9.70;99.90
54431;DHT22;40342;52.998;5.862;2023-04-24T09:14:17;9.70;99.90
54431;DHT22;40342;52.998;5.862;2023-04-24T09:16:42;9.60;99.90
54431;DHT22;40342;52.998;5.862;2023-04-24T09:19:08;9.70;99.90
54431;DHT22;40342;52.998;5.862;2023-04-24T09:21:34;9.60;99.90
54431;DHT22;40342;52.998;5.862;2023-04-24T09:24:06;9.60;99.90
54431;DHT22;40342;52.998;5.862;2023-04-24T09:26:35;9.60;99.90
54431;DHT22;40342;52.998;5.862;2023-04-24T09:29:01;9.50;99.90
54431;DHT22;40342;52.998;5.862;2023-04-24T09:31:29;9.50;99.90
54431;DHT22;40342;52.998;5.862;2023-04-24T09:34:01;9.50;99.90
54431;DHT22;40342;52.998;5.862;2023-04-24T09:36:37;9.40;99.90
54431;DHT22;40342;52.998;5.862;2023-04-24T09:39:14;9.40;99.90
54431;DHT22;40342;52.998;5.862;2023-04-24T09:41:48;9.30;99.90
54431;DHT22;40342;52.998;5.862;2023-04-24T09:44:17;9.30;99.90
54431;DHT22;40342;52.998;5.862;2023-04-24T09:46:45;9.30;99.90
54431;DHT22;40342;52.998;5.862;2023-04-24T09:49:15;9.30;99.90
54431;DHT22;40342;52.998;5.862;2023-04-24T09:51:41;9.20;99.90
54431;DHT22;40342;52.998;5.862;2023-04-24T09:54:18;9.20;99.90
54431;DHT22;40342;52.998;5.862;2023-04-24T09:56:50;9.20;99.90
54431;DHT22;40342;52.998;5.862;2023-04-24T09:59:18;9.10;99.90
54431;DHT22;40342;52.998;5.862;2023-04-24T10:01:44;9.20;99.90
54431;DHT22;40342;52.998;5.862;2023-04-24T10:04:19;9.20;99.90
54431;DHT22;40342;52.998;5.862;2023-04-24T10:06:46;9.30;99.90
54431;DHT22;40342;52.998;5.862;2023-04-24T10:09:14;9.30;99.90
54431;DHT22;40342;52.998;5.862;2023-04-24T10:11:45;9.30;99.90
54431;DHT22;40342;52.998;5.862;2023-04-24T10:14:16;9.40;99.90
54431;DHT22;40342;52.998;5.862;2023-04-24T10:16:43;9.40;99.90
54431;DHT22;40342;52.998;5.862;2023-04-24T10:19:09;9.30;99.90
54431;DHT22;40342;52.998;5.862;2023-04-24T10:21:36;9.30;99.90
54431;DHT22;40342;52.998;5.862;2023-04-24T10:24:08;9.20;99.90
54431;DHT22;40342;52.998;5.862;2023-04-24T10:26:34;9.20;99.90
54431;DHT22;40342;52.998;5.862;2023-04-24T10:29:01;9.20;99.90
54431;DHT22;40342;52.998;5.862;2023-04-24T10:31:28;9.30;99.90
54431;DHT22;40342;52.998;5.862;2023-04-24T10:33:56;9.30;99.90
54431;DHT22;40342;52.998;5.862;2023-04-24T10:36:24;9.30;99.90
54431;DHT22;40342;52.998;5.862;2023-04-24T10:38:52;9.30;99.90
54431;DHT22;40342;52.998;5.862;2023-04-24T10:41:20;9.30;99.90
54431;DHT22;40342;52.998;5.862;2023-04-24T10:44:03;9.30;99.90
54431;DHT22;40342;52.998;5.862;2023-04-24T10:46:30;9.40;99.90
54431;DHT22;40342;52.998;5.862;2023-04-24T10:48:56;9.40;99.90
54431;DHT22;40342;52.998;5.862;2023-04-24T10:51:23;9.50;99.90
54431;DHT22;40342;52.998;5.862;2023-04-24T10:53:50;9.50;99.90
54431;DHT22;40342;52.998;5.862;2023-04-24T10:56:17;9.60;99.90
54431;DHT22;40342;52.998;5.862;2023-04-24T10:58:51;9.50;99.90
54431;DHT22;40342;52.998;5.862;2023-04-24T11:01:28;9.40;99.90
54431;DHT22;40342;52.998;5.862;2023-04-24T11:03:59;9.40;99.90
54431;DHT22;40342;52.998;5.862;2023-04-24T11:06:33;9.30;99.90
54431;DHT22;40342;52.998;5.862;2023-04-24T11:09:10;9.30;99.90
54431;DHT22;40342;52.998;5.862;2023-04-24T11:11:42;9.30;99.90
54431;DHT22;40342;52.998;5.862;2023-04-24T11:14:10;9.30;99.90
54431;DHT22;40342;52.998;5.862;2023-04-24T11:16:39;9.20;99.90
54431;DHT22;40342;52.998;5.862;2023-04-24T11:19:20;9.20;99.90
54431;DHT22;40342;52.998;5.862;2023-04-24T11:21:55;9.20;99.90
54431;DHT22;40342;52.998;5.862;2023-04-24T11:27:06;9.20;99.90
54431;DHT22;40342;52.998;5.862;2023-04-24T11:29:47;9.30;99.90
54431;DHT22;40342;52.998;5.862;2023-04-24T11:32:23;9.30;99.90
54431;DHT22;40342;52.998;5.862;2023-04-24T11:34:51;9.40;99.90
54431;DHT22;40342;52.998;5.862;2023-04-24T11:37:17;9.50;99.90
54431;DHT22;40342;52.998;5.862;2023-04-24T11:39:43;9.50;99.90
54431;DHT22;40342;52.998;5.862;2023-04-24T11:42:09;9.50;99.90
54431;DHT22;40342;52.998;5.862;2023-04-24T11:44:35;9.60;99.90
54431;DHT22;40342;52.998;5.862;2023-04-24T11:47:05;9.50;99.90
54431;DHT22;40342;52.998;5.862;2023-04-24T11:49:32;9.50;99.90
54431;DHT22;40342;52.998;5.862;2023-04-24T11:51:59;9.50;99.90
54431;DHT22;40342;52.998;5.862;2023-04-24T11:54:26;9.50;99.90
54431;DHT22;40342;52.998;5.862;2023-04-24T11:56:51;9.50;99.90
54431;DHT22;40342;52.998;5.862;2023-04-24T11:59:17;9.40;99.90
54431;DHT22;40342;52.998;5.862;2023-04-24T12:01:46;9.40;99.90
54431;DHT22;40342;52.998;5.862;2023-04-24T12:04:13;9.40;99.90
54431;DHT22;40342;52.998;5.862;2023-04-24T12:06:39;9.40;99.90
54431;DHT22;40342;52.998;5.862;2023-04-24T12:09:04;9.40;99.90
54431;DHT22;40342;52.998;5.862;2023-04-24T12:11:30;9.40;99.90
54431;DHT22;40342;52.998;5.862;2023-04-24T12:13:56;9.40;99.90
54431;DHT22;40342;52.998;5.862;2023-04-24T12:16:21;9.30;99.90
54431;DHT22;40342;52.998;5.862;2023-04-24T12:18:47;9.20;99.90
54431;DHT22;40342;52.998;5.862;2023-04-24T12:21:20;9.40;99.90
54431;DHT22;40342;52.998;5.862;2023-04-24T12:23:46;9.50;99.90
54431;DHT22;40342;52.998;5.862;2023-04-24T12:26:19;9.50;99.90
54431;DHT22;40342;52.998;5.862;2023-04-24T12:28:47;9.60;99.90
54431;DHT22;40342;52.998;5.862;2023-04-24T12:31:14;9.60;99.90
54431;DHT22;40342;52.998;5.862;2023-04-24T12:33:40;9.50;99.90
54431;DHT22;40342;52.998;5.862;2023-04-24T12:36:06;9.60;99.90
54431;DHT22;40342;52.998;5.862;2023-04-24T12:38:32;9.60;99.90
54431;DHT22;40342;52.998;5.862;2023-04-24T12:41:10;9.60;99.90
54431;DHT22;40342;52.998;5.862;2023-04-24T12:43:36;9.50;99.90
54431;DHT22;40342;52.998;5.862;2023-04-24T12:46:03;9.40;99.90
54431;DHT22;40342;52.998;5.862;2023-04-24T12:48:29;9.40;99.90
54431;DHT22;40342;52.998;5.862;2023-04-24T12:50:57;9.30;99.90
54431;DHT22;40342;52.998;5.862;2023-04-24T12:53:25;9.30;99.90
54431;DHT22;40342;52.998;5.862;2023-04-24T12:55:52;9.20;99.90
54431;DHT22;40342;52.998;5.862;2023-04-24T12:58:21;9.20;99.90
54431;DHT22;40342;52.998;5.862;2023-04-24T13:00:47;9.20;99.90
54431;DHT22;40342;52.998;5.862;2023-04-24T13:03:13;9.20;99.90
54431;DHT22;40342;52.998;5.862;2023-04-24T13:05:38;9.30;99.90
54431;DHT22;40342;52.998;5.862;2023-04-24T13:08:04;9.40;99.90
54431;DHT22;40342;52.998;5.862;2023-04-24T13:10:30;9.40;99.90
54431;DHT22;40342;52.998;5.862;2023-04-24T13:12:56;9.50;99.90
54431;DHT22;40342;52.998;5.862;2023-04-24T13:15:21;9.60;99.90
54431;DHT22;40342;52.998;5.862;2023-04-24T13:17:47;9.60;99.90
54431;DHT22;40342;52.998;5.862;2023-04-24T13:20:13;9.60;99.90
54431;DHT22;40342;52.998;5.862;2023-04-24T13:22:38;9.60;99.90
54431;DHT22;40342;52.998;5.862;2023-04-24T13:25:04;9.50;99.90
54431;DHT22;40342;52.998;5.862;2023-04-24T13:27:31;9.50;99.90
54431;DHT22;40342;52.998;5.862;2023-04-24T13:29:57;9.50;99.90
54431;DHT22;40342;52.998;5.862;2023-04-24T13:32:22;9.60;99.90
54431;DHT22;40342;52.998;5.862;2023-04-24T13:34:48;9.50;99.90
54431;DHT22;40342;52.998;5.862;2023-04-24T13:37:13;9.40;99.90
54431;DHT22;40342;52.998;5.862;2023-04-24T13:39:40;9.30;99.90
54431;DHT22;40342;52.998;5.862;2023-04-24T13:42:06;9.30;99.90
54431;DHT22;40342;52.998;5.862;2023-04-24T13:44:32;9.30;99.90
54431;DHT22;40342;52.998;5.862;2023-04-24T13:46:58;9.20;99.90
54431;DHT22;40342;52.998;5.862;2023-04-24T13:49:24;9.10;99.90
54431;DHT22;40342;52.998;5.862;2023-04-24T13:51:50;9.10;99.90
54431;DHT22;40342;52.998;5.862;2023-04-24T13:54:16;9.20;99.90
54431;DHT22;40342;52.998;5.862;2023-04-24T13:56:41;9.20;99.90
54431;DHT22;40342;52.998;5.862;2023-04-24T13:59:07;9.20;99.90
54431;DHT22;40342;52.998;5.862;2023-04-24T14:01:33;9.10;99.90
54431;DHT22;40342;52.998;5.862;2023-04-24T14:03:58;9.10;99.90
54431;DHT22;40342;52.998;5.862;2023-04-24T14:06:24;9.10;99.90
54431;DHT22;40342;52.998;5.862;2023-04-24T14:08:50;9.00;99.90
54431;DHT22;40342;52.998;5.862;2023-04-24T14:11:16;8.90;99.90
54431;DHT22;40342;52.998;5.862;2023-04-24T14:13:42;9.00;99.90
54431;DHT22;40342;52.998;5.862;2023-04-24T14:16:09;9.00;99.90
54431;DHT22;40342;52.998;5.862;2023-04-24T14:18:35;9.00;99.90
54431;DHT22;40342;52.998;5.862;2023-04-24T14:21:02;9.00;99.90
54431;DHT22;40342;52.998;5.862;2023-04-24T14:23:28;9.00;99.90
54431;DHT22;40342;52.998;5.862;2023-04-24T14:25:53;8.90;99.90
54431;DHT22;40342;52.998;5.862;2023-04-24T14:28:20;8.90;99.90
54431;DHT22;40342;52.998;5.862;2023-04-24T14:30:46;8.90;99.90
54431;DHT22;40342;52.998;5.862;2023-04-24T14:33:12;8.90;99.90
54431;DHT22;40342;52.998;5.862;2023-04-24T14:35:39;8.90;99.90
54431;DHT22;40342;52.998;5.862;2023-04-24T14:38:05;8.80;99.90
54431;DHT22;40342;52.998;5.862;2023-04-24T14:40:31;8.80;99.90
54431;DHT22;40342;52.998;5.862;2023-04-24T14:42:58;8.80;99.90
54431;DHT22;40342;52.998;5.862;2023-04-24T14:45:24;8.80;99.90
54431;DHT22;40342;52.998;5.862;2023-04-24T14:47:50;8.90;99.90
54431;DHT22;40342;52.998;5.862;2023-04-24T14:50:15;9.00;99.90
54431;DHT22;40342;52.998;5.862;2023-04-24T14:52:41;9.10;99.90
54431;DHT22;40342;52.998;5.862;2023-04-24T14:55:07;9.10;99.90
54431;DHT22;40342;52.998;5.862;2023-04-24T14:57:33;9.00;99.90
54431;DHT22;40342;52.998;5.862;2023-04-24T14:59:59;9.00;99.90
54431;DHT22;40342;52.998;5.862;2023-04-24T15:02:25;9.10;99.90
54431;DHT22;40342;52.998;5.862;2023-04-24T15:04:50;8.90;99.90
54431;DHT22;40342;52.998;5.862;2023-04-24T15:07:16;8.90;99.90
54431;DHT22;40342;52.998;5.862;2023-04-24T15:09:41;8.80;99.90
54431;DHT22;40342;52.998;5.862;2023-04-24T15:12:08;8.80;99.90
54431;DHT22;40342;52.998;5.862;2023-04-24T15:14:33;8.80;99.90
54431;DHT22;40342;52.998;5.862;2023-04-24T15:16:59;8.80;99.90
54431;DHT22;40342;52.998;5.862;2023-04-24T15:19:25;8.80;99.90
54431;DHT22;40342;52.998;5.862;2023-04-24T15:21:50;8.90;99.90
54431;DHT22;40342;52.998;5.862;2023-04-24T15:24:16;8.80;99.90
54431;DHT22;40342;52.998;5.862;2023-04-24T15:26:41;8.80;99.90
54431;DHT22;40342;52.998;5.862;2023-04-24T15:29:07;8.70;99.90
54431;DHT22;40342;52.998;5.862;2023-04-24T15:31:33;8.60;99.90
54431;DHT22;40342;52.998;5.862;2023-04-24T15:33:58;8.70;99.90
54431;DHT22;40342;52.998;5.862;2023-04-24T15:36:24;8.60;99.90
54431;DHT22;40342;52.998;5.862;2023-04-24T15:38:49;8.70;99.90